sensor_id;sensor_type;location;lat;lon;timestamp;P1;durP1;ratioP1;P2;durP2;ratioP2
9771;SDS011;4925;52.588;13.370;2023-03-01T00:01:16;24.70;;;15.67;;
9771;SDS011;4925;52.588;13.370;2023-03-01T00:03:44;26.53;;;17.23;;
9771;SDS011;4925;52.588;13.370;2023-03-01T00:06:10;22.17;;;12.20;;
9771;SDS011;4925;52.588;13.370;2023-03-01T00:08:36;15.80;;;10.03;;
9771;SDS011;4925;52.588;13.370;2023-03-01T00:13:43;16.13;;;10.47;;
9771;SDS011;4925;52.588;13.370;2023-03-01T00:16:11;16.67;;;10.37;;
9771;SDS011;4925;52.588;13.370;2023-03-01T00:18:38;17.90;;;10.80;;
9771;SDS011;4925;52.588;13.370;2023-03-01T00:21:04;15.17;;;10.43;;
9771;SDS011;4925;52.588;13.370;2023-03-01T00:23:30;14.07;;;9.77;;
9771;SDS011;4925;52.588;13.370;2023-03-01T00:25:58;15.60;;;10.53;;
9771;SDS011;4925;52.588;13.370;2023-03-01T00:28:24;15.77;;;9.37;;
9771;SDS011;4925;52.588;13.370;2023-03-01T00:30:49;17.07;;;9.53;;
9771;SDS011;4925;52.588;13.370;2023-03-01T00:33:15;14.50;;;10.23;;
9771;SDS011;4925;52.588;13.370;2023-03-01T00:35:41;14.67;;;9.43;;
9771;SDS011;4925;52.588;13.370;2023-03-01T00:38:07;16.43;;;10.53;;
9771;SDS011;4925;52.588;13.370;2023-03-01T00:40:33;18.00;;;10.33;;
9771;SDS011;4925;52.588;13.370;2023-03-01T00:43:00;17.30;;;9.70;;
9771;SDS011;4925;52.588;13.370;2023-03-01T00:45:26;17.07;;;9.67;;
9771;SDS011;4925;52.588;13.370;2023-03-01T00:47:52;17.60;;;10.80;;
9771;SDS011;4925;52.588;13.370;2023-03-01T00:50:18;15.37;;;10.03;;
9771;SDS011;4925;52.588;13.370;2023-03-01T00:52:44;17.03;;;10.43;;
9771;SDS011;4925;52.588;13.370;2023-03-01T00:55:10;17.47;;;10.57;;
9771;SDS011;4925;52.588;13.370;2023-03-01T00:57:37;14.83;;;9.37;;
9771;SDS011;4925;52.588;13.370;2023-03-01T01:00:04;20.80;;;10.03;;
9771;SDS011;4925;52.588;13.370;2023-03-01T01:02:33;15.30;;;10.43;;
9771;SDS011;4925;52.588;13.370;2023-03-01T01:04:59;17.70;;;9.97;;
9771;SDS011;4925;52.588;13.370;2023-03-01T01:07:25;15.53;;;9.93;;
9771;SDS011;4925;52.588;13.370;2023-03-01T01:09:50;17.10;;;10.53;;
9771;SDS011;4925;52.588;13.370;2023-03-01T01:12:16;19.43;;;10.67;;
9771;SDS011;4925;52.588;13.370;2023-03-01T01:14:42;15.03;;;9.93;;
9771;SDS011;4925;52.588;13.370;2023-03-01T01:17:08;13.67;;;8.87;;
9771;SDS011;4925;52.588;13.370;2023-03-01T01:19:34;18.50;;;10.07;;
9771;SDS011;4925;52.588;13.370;2023-03-01T01:22:00;16.17;;;10.07;;
9771;SDS011;4925;52.588;13.370;2023-03-01T01:24:26;14.70;;;8.97;;
9771;SDS011;4925;52.588;13.370;2023-03-01T01:26:51;16.07;;;9.33;;
9771;SDS011;4925;52.588;13.370;2023-03-01T01:29:17;17.93;;;10.00;;
9771;SDS011;4925;52.588;13.370;2023-03-01T01:31:43;17.10;;;9.70;;
9771;SDS011;4925;52.588;13.370;2023-03-01T01:34:13;16.30;;;9.70;;
9771;SDS011;4925;52.588;13.370;2023-03-01T01:36:40;15.17;;;9.90;;
9771;SDS011;4925;52.588;13.370;2023-03-01T01:39:06;17.43;;;9.87;;
9771;SDS011;4925;52.588;13.370;2023-03-01T01:41:32;15.57;;;9.97;;
9771;SDS011;4925;52.588;13.370;2023-03-01T01:49:53;17.40;;;9.97;;
9771;SDS011;4925;52.588;13.370;2023-03-01T01:52:25;16.60;;;9.67;;
9771;SDS011;4925;52.588;13.370;2023-03-01T01:57:36;14.23;;;9.63;;
9771;SDS011;4925;52.588;13.370;2023-03-01T02:00:07;16.33;;;9.90;;
9771;SDS011;4925;52.588;13.370;2023-03-01T02:02:38;15.53;;;9.47;;
9771;SDS011;4925;52.588;13.370;2023-03-01T02:05:08;14.90;;;9.50;;
9771;SDS011;4925;52.588;13.370;2023-03-01T02:07:39;16.90;;;10.60;;
9771;SDS011;4925;52.588;13.370;2023-03-01T02:10:06;18.37;;;9.67;;
9771;SDS011;4925;52.588;13.370;2023-03-01T02:12:33;15.10;;;9.30;;
9771;SDS011;4925;52.588;13.370;2023-03-01T02:15:00;12.83;;;8.93;;
9771;SDS011;4925;52.588;13.370;2023-03-01T02:17:26;17.87;;;9.30;;
9771;SDS011;4925;52.588;13.370;2023-03-01T02:22:43;16.13;;;9.90;;
9771;SDS011;4925;52.588;13.370;2023-03-01T02:30:28;14.60;;;9.60;;
9771;SDS011;4925;52.588;13.370;2023-03-01T02:32:56;17.67;;;9.67;;
9771;SDS011;4925;52.588;13.370;2023-03-01T02:35:27;17.67;;;10.17;;
9771;SDS011;4925;52.588;13.370;2023-03-01T02:37:57;21.17;;;10.83;;
9771;SDS011;4925;52.588;13.370;2023-03-01T02:40:25;16.37;;;9.77;;
9771;SDS011;4925;52.588;13.370;2023-03-01T02:42:57;17.23;;;10.27;;
9771;SDS011;4925;52.588;13.370;2023-03-01T02:45:24;16.53;;;9.73;;
9771;SDS011;4925;52.588;13.370;2023-03-01T02:47:53;18.03;;;9.93;;
9771;SDS011;4925;52.588;13.370;2023-03-01T02:50:34;16.13;;;10.20;;
9771;SDS011;4925;52.588;13.370;2023-03-01T02:53:32;17.33;;;9.63;;
9771;SDS011;4925;52.588;13.370;2023-03-01T02:56:20;18.80;;;10.80;;
9771;SDS011;4925;52.588;13.370;2023-03-01T02:58:46;18.70;;;11.17;;
9771;SDS011;4925;52.588;13.370;2023-03-01T03:01:16;18.13;;;10.43;;
9771;SDS011;4925;52.588;13.370;2023-03-01T03:03:43;20.63;;;11.07;;
9771;SDS011;4925;52.588;13.370;2023-03-01T03:06:09;18.43;;;11.03;;
9771;SDS011;4925;52.588;13.370;2023-03-01T03:08:35;20.87;;;10.50;;
9771;SDS011;4925;52.588;13.370;2023-03-01T03:11:01;20.53;;;10.50;;
9771;SDS011;4925;52.588;13.370;2023-03-01T03:13:26;20.63;;;10.00;;
9771;SDS011;4925;52.588;13.370;2023-03-01T03:15:53;17.97;;;9.73;;
9771;SDS011;4925;52.588;13.370;2023-03-01T03:18:20;19.80;;;9.90;;
9771;SDS011;4925;52.588;13.370;2023-03-01T03:20:47;18.20;;;9.87;;
9771;SDS011;4925;52.588;13.370;2023-03-01T03:23:17;14.93;;;9.23;;
9771;SDS011;4925;52.588;13.370;2023-03-01T03:25:44;16.00;;;9.67;;
9771;SDS011;4925;52.588;13.370;2023-03-01T03:28:12;20.53;;;9.90;;
9771;SDS011;4925;52.588;13.370;2023-03-01T03:30:39;17.87;;;10.20;;
9771;SDS011;4925;52.588;13.370;2023-03-01T03:33:06;19.50;;;10.17;;
9771;SDS011;4925;52.588;13.370;2023-03-01T03:35:33;14.97;;;9.37;;
9771;SDS011;4925;52.588;13.370;2023-03-01T03:38:05;13.10;;;8.50;;
9771;SDS011;4925;52.588;13.370;2023-03-01T03:43:02;17.77;;;9.03;;
9771;SDS011;4925;52.588;13.370;2023-03-01T03:45:28;19.77;;;9.60;;
9771;SDS011;4925;52.588;13.370;2023-03-01T03:47:54;15.70;;;9.17;;
9771;SDS011;4925;52.588;13.370;2023-03-01T03:50:20;15.43;;;9.47;;
9771;SDS011;4925;52.588;13.370;2023-03-01T03:52:46;15.70;;;9.07;;
9771;SDS011;4925;52.588;13.370;2023-03-01T03:55:12;13.73;;;9.50;;
9771;SDS011;4925;52.588;13.370;2023-03-01T03:57:38;21.00;;;9.47;;
9771;SDS011;4925;52.588;13.370;2023-03-01T04:00:09;16.77;;;9.43;;
9771;SDS011;4925;52.588;13.370;2023-03-01T04:02:40;15.20;;;9.27;;
9771;SDS011;4925;52.588;13.370;2023-03-01T04:05:07;14.67;;;9.07;;
9771;SDS011;4925;52.588;13.370;2023-03-01T04:07:35;17.73;;;9.40;;
9771;SDS011;4925;52.588;13.370;2023-03-01T04:10:02;15.00;;;9.17;;
9771;SDS011;4925;52.588;13.370;2023-03-01T04:12:32;16.00;;;9.10;;
9771;SDS011;4925;52.588;13.370;2023-03-01T04:15:02;15.00;;;8.77;;
9771;SDS011;4925;52.588;13.370;2023-03-01T04:17:41;16.40;;;9.23;;
9771;SDS011;4925;52.588;13.370;2023-03-01T04:20:09;20.03;;;9.80;;
9771;SDS011;4925;52.588;13.370;2023-03-01T04:22:42;15.53;;;9.23;;
9771;SDS011;4925;52.588;13.370;2023-03-01T04:25:11;18.43;;;9.77;;
9771;SDS011;4925;52.588;13.370;2023-03-01T04:27:38;19.67;;;10.90;;
9771;SDS011;4925;52.588;13.370;2023-03-01T04:30:04;17.07;;;9.70;;
9771;SDS011;4925;52.588;13.370;2023-03-01T04:32:31;17.50;;;10.73;;
9771;SDS011;4925;52.588;13.370;2023-03-01T04:34:56;21.70;;;10.37;;
9771;SDS011;4925;52.588;13.370;2023-03-01T04:37:22;19.17;;;10.17;;
9771;SDS011;4925;52.588;13.370;2023-03-01T04:39:49;19.67;;;9.97;;
9771;SDS011;4925;52.588;13.370;2023-03-01T04:42:15;17.07;;;9.20;;
9771;SDS011;4925;52.588;13.370;2023-03-01T04:44:42;15.60;;;9.27;;
9771;SDS011;4925;52.588;13.370;2023-03-01T04:47:08;17.77;;;9.73;;
9771;SDS011;4925;52.588;13.370;2023-03-01T04:49:34;14.47;;;9.60;;
9771;SDS011;4925;52.588;13.370;2023-03-01T04:51:59;17.23;;;9.50;;
9771;SDS011;4925;52.588;13.370;2023-03-01T04:54:32;14.60;;;9.37;;
9771;SDS011;4925;52.588;13.370;2023-03-01T04:56:59;16.03;;;8.80;;
9771;SDS011;4925;52.588;13.370;2023-03-01T04:59:25;13.17;;;8.20;;
9771;SDS011;4925;52.588;13.370;2023-03-01T05:01:51;13.77;;;8.40;;
9771;SDS011;4925;52.588;13.370;2023-03-01T05:04:21;13.80;;;7.97;;
9771;SDS011;4925;52.588;13.370;2023-03-01T05:06:49;12.83;;;7.80;;
9771;SDS011;4925;52.588;13.370;2023-03-01T05:09:16;14.80;;;8.90;;
9771;SDS011;4925;52.588;13.370;2023-03-01T05:11:42;11.83;;;8.43;;
9771;SDS011;4925;52.588;13.370;2023-03-01T05:14:08;16.80;;;9.27;;
9771;SDS011;4925;52.588;13.370;2023-03-01T05:16:34;16.17;;;8.83;;
9771;SDS011;4925;52.588;13.370;2023-03-01T05:19:02;13.43;;;8.93;;
9771;SDS011;4925;52.588;13.370;2023-03-01T05:21:36;14.77;;;9.17;;
9771;SDS011;4925;52.588;13.370;2023-03-01T05:24:22;19.60;;;10.43;;
9771;SDS011;4925;52.588;13.370;2023-03-01T05:26:48;18.47;;;9.73;;
9771;SDS011;4925;52.588;13.370;2023-03-01T05:29:17;19.00;;;10.60;;
9771;SDS011;4925;52.588;13.370;2023-03-01T05:31:44;18.27;;;9.80;;
9771;SDS011;4925;52.588;13.370;2023-03-01T05:34:09;14.73;;;8.87;;
9771;SDS011;4925;52.588;13.370;2023-03-01T05:36:37;10.63;;;5.77;;
9771;SDS011;4925;52.588;13.370;2023-03-01T05:39:03;19.70;;;9.40;;
9771;SDS011;4925;52.588;13.370;2023-03-01T05:41:29;17.77;;;10.50;;
9771;SDS011;4925;52.588;13.370;2023-03-01T05:43:55;15.87;;;10.20;;
9771;SDS011;4925;52.588;13.370;2023-03-01T05:46:21;15.60;;;9.23;;
9771;SDS011;4925;52.588;13.370;2023-03-01T05:48:49;17.57;;;10.23;;
9771;SDS011;4925;52.588;13.370;2023-03-01T05:51:15;15.87;;;9.77;;
9771;SDS011;4925;52.588;13.370;2023-03-01T05:53:41;14.93;;;9.97;;
9771;SDS011;4925;52.588;13.370;2023-03-01T05:56:06;18.93;;;10.57;;
9771;SDS011;4925;52.588;13.370;2023-03-01T05:58:32;15.20;;;9.17;;
9771;SDS011;4925;52.588;13.370;2023-03-01T06:00:58;15.10;;;9.87;;
9771;SDS011;4925;52.588;13.370;2023-03-01T06:03:24;18.00;;;10.50;;
9771;SDS011;4925;52.588;13.370;2023-03-01T06:05:49;18.60;;;10.93;;
9771;SDS011;4925;52.588;13.370;2023-03-01T06:08:21;14.13;;;9.57;;
9771;SDS011;4925;52.588;13.370;2023-03-01T06:10:47;17.57;;;10.27;;
9771;SDS011;4925;52.588;13.370;2023-03-01T06:13:13;18.40;;;10.20;;
9771;SDS011;4925;52.588;13.370;2023-03-01T06:15:38;17.23;;;10.27;;
9771;SDS011;4925;52.588;13.370;2023-03-01T06:18:04;20.70;;;11.07;;
9771;SDS011;4925;52.588;13.370;2023-03-01T06:20:30;15.90;;;9.43;;
9771;SDS011;4925;52.588;13.370;2023-03-01T06:22:55;17.70;;;11.17;;
9771;SDS011;4925;52.588;13.370;2023-03-01T06:25:22;22.20;;;12.30;;
9771;SDS011;4925;52.588;13.370;2023-03-01T06:27:49;23.67;;;11.93;;
9771;SDS011;4925;52.588;13.370;2023-03-01T06:30:17;21.50;;;10.87;;
9771;SDS011;4925;52.588;13.370;2023-03-01T06:32:44;17.93;;;11.50;;
9771;SDS011;4925;52.588;13.370;2023-03-01T06:35:10;18.77;;;10.60;;
9771;SDS011;4925;52.588;13.370;2023-03-01T06:37:37;18.67;;;10.17;;
9771;SDS011;4925;52.588;13.370;2023-03-01T06:40:03;24.70;;;11.93;;
9771;SDS011;4925;52.588;13.370;2023-03-01T06:42:33;23.03;;;11.70;;
9771;SDS011;4925;52.588;13.370;2023-03-01T06:45:04;20.77;;;12.07;;
9771;SDS011;4925;52.588;13.370;2023-03-01T06:47:32;24.93;;;11.67;;
9771;SDS011;4925;52.588;13.370;2023-03-01T06:49:58;28.10;;;14.03;;
9771;SDS011;4925;52.588;13.370;2023-03-01T06:52:24;28.00;;;14.67;;
9771;SDS011;4925;52.588;13.370;2023-03-01T06:54:50;21.13;;;14.10;;
9771;SDS011;4925;52.588;13.370;2023-03-01T06:57:16;28.03;;;14.57;;
9771;SDS011;4925;52.588;13.370;2023-03-01T06:59:42;26.63;;;13.73;;
9771;SDS011;4925;52.588;13.370;2023-03-01T07:02:10;22.43;;;11.57;;
9771;SDS011;4925;52.588;13.370;2023-03-01T07:04:37;19.73;;;11.87;;
9771;SDS011;4925;52.588;13.370;2023-03-01T07:07:03;17.87;;;11.30;;
9771;SDS011;4925;52.588;13.370;2023-03-01T07:09:28;21.00;;;11.83;;
9771;SDS011;4925;52.588;13.370;2023-03-01T07:11:54;21.43;;;12.00;;
9771;SDS011;4925;52.588;13.370;2023-03-01T07:14:21;22.67;;;13.53;;
9771;SDS011;4925;52.588;13.370;2023-03-01T07:16:49;24.03;;;13.83;;
9771;SDS011;4925;52.588;13.370;2023-03-01T07:19:15;22.90;;;13.57;;
9771;SDS011;4925;52.588;13.370;2023-03-01T07:21:40;22.83;;;13.37;;
9771;SDS011;4925;52.588;13.370;2023-03-01T07:24:07;26.13;;;15.27;;
9771;SDS011;4925;52.588;13.370;2023-03-01T07:26:33;25.80;;;14.87;;
9771;SDS011;4925;52.588;13.370;2023-03-01T07:28:59;22.03;;;13.03;;
9771;SDS011;4925;52.588;13.370;2023-03-01T07:31:26;22.80;;;13.43;;
9771;SDS011;4925;52.588;13.370;2023-03-01T07:33:54;25.03;;;13.97;;
9771;SDS011;4925;52.588;13.370;2023-03-01T07:36:20;20.13;;;12.53;;
9771;SDS011;4925;52.588;13.370;2023-03-01T07:38:46;20.20;;;12.33;;
9771;SDS011;4925;52.588;13.370;2023-03-01T07:41:12;18.03;;;12.10;;
9771;SDS011;4925;52.588;13.370;2023-03-01T07:43:38;20.63;;;11.53;;
9771;SDS011;4925;52.588;13.370;2023-03-01T07:46:04;20.17;;;11.77;;
9771;SDS011;4925;52.588;13.370;2023-03-01T07:48:30;15.63;;;10.57;;
9771;SDS011;4925;52.588;13.370;2023-03-01T07:51:00;40.33;;;21.73;;
9771;SDS011;4925;52.588;13.370;2023-03-01T07:53:27;23.57;;;13.87;;
9771;SDS011;4925;52.588;13.370;2023-03-01T07:56:00;17.67;;;11.70;;
9771;SDS011;4925;52.588;13.370;2023-03-01T07:58:27;17.40;;;11.50;;
9771;SDS011;4925;52.588;13.370;2023-03-01T08:00:52;16.37;;;10.27;;
9771;SDS011;4925;52.588;13.370;2023-03-01T08:03:18;19.20;;;11.13;;
9771;SDS011;4925;52.588;13.370;2023-03-01T08:05:44;15.93;;;10.33;;
9771;SDS011;4925;52.588;13.370;2023-03-01T08:08:09;16.27;;;10.33;;
9771;SDS011;4925;52.588;13.370;2023-03-01T08:10:35;18.20;;;10.40;;
9771;SDS011;4925;52.588;13.370;2023-03-01T08:13:01;16.13;;;10.27;;
9771;SDS011;4925;52.588;13.370;2023-03-01T08:15:27;14.10;;;10.30;;
9771;SDS011;4925;52.588;13.370;2023-03-01T08:17:53;17.10;;;9.80;;
9771;SDS011;4925;52.588;13.370;2023-03-01T08:20:18;12.50;;;8.90;;
9771;SDS011;4925;52.588;13.370;2023-03-01T08:22:44;16.40;;;8.30;;
9771;SDS011;4925;52.588;13.370;2023-03-01T08:25:09;13.13;;;9.10;;
9771;SDS011;4925;52.588;13.370;2023-03-01T08:27:35;15.87;;;9.33;;
9771;SDS011;4925;52.588;13.370;2023-03-01T08:30:01;12.43;;;7.57;;
9771;SDS011;4925;52.588;13.370;2023-03-01T08:32:27;16.20;;;7.67;;
9771;SDS011;4925;52.588;13.370;2023-03-01T08:34:52;12.50;;;8.23;;
9771;SDS011;4925;52.588;13.370;2023-03-01T08:37:18;9.73;;;7.13;;
9771;SDS011;4925;52.588;13.370;2023-03-01T08:39:43;13.07;;;7.47;;
9771;SDS011;4925;52.588;13.370;2023-03-01T08:42:09;15.50;;;7.57;;
9771;SDS011;4925;52.588;13.370;2023-03-01T08:44:35;9.83;;;6.93;;
9771;SDS011;4925;52.588;13.370;2023-03-01T08:47:00;15.20;;;6.97;;
9771;SDS011;4925;52.588;13.370;2023-03-01T08:49:27;11.03;;;6.87;;
9771;SDS011;4925;52.588;13.370;2023-03-01T08:51:53;56.30;;;27.73;;
9771;SDS011;4925;52.588;13.370;2023-03-01T08:54:19;33.53;;;18.03;;
9771;SDS011;4925;52.588;13.370;2023-03-01T08:56:47;9.87;;;5.07;;
9771;SDS011;4925;52.588;13.370;2023-03-01T08:59:16;7.50;;;4.43;;
9771;SDS011;4925;52.588;13.370;2023-03-01T09:01:43;6.17;;;4.23;;
9771;SDS011;4925;52.588;13.370;2023-03-01T09:04:09;10.50;;;4.90;;
9771;SDS011;4925;52.588;13.370;2023-03-01T09:06:39;12.07;;;4.30;;
9771;SDS011;4925;52.588;13.370;2023-03-01T09:09:05;16.80;;;5.10;;
9771;SDS011;4925;52.588;13.370;2023-03-01T09:11:32;5.93;;;3.70;;
9771;SDS011;4925;52.588;13.370;2023-03-01T09:13:58;10.37;;;4.70;;
9771;SDS011;4925;52.588;13.370;2023-03-01T09:16:24;5.77;;;4.33;;
9771;SDS011;4925;52.588;13.370;2023-03-01T09:18:54;10.33;;;4.10;;
9771;SDS011;4925;52.588;13.370;2023-03-01T09:21:20;7.37;;;4.00;;
9771;SDS011;4925;52.588;13.370;2023-03-01T09:23:48;12.00;;;4.00;;
9771;SDS011;4925;52.588;13.370;2023-03-01T09:26:15;5.87;;;3.57;;
9771;SDS011;4925;52.588;13.370;2023-03-01T09:28:44;5.67;;;3.53;;
9771;SDS011;4925;52.588;13.370;2023-03-01T09:31:11;4.93;;;3.63;;
9771;SDS011;4925;52.588;13.370;2023-03-01T09:33:40;6.23;;;4.10;;
9771;SDS011;4925;52.588;13.370;2023-03-01T09:36:11;5.57;;;3.60;;
9771;SDS011;4925;52.588;13.370;2023-03-01T09:38:38;5.93;;;4.03;;
9771;SDS011;4925;52.588;13.370;2023-03-01T09:41:18;8.77;;;3.90;;
9771;SDS011;4925;52.588;13.370;2023-03-01T09:44:05;4.53;;;3.63;;
9771;SDS011;4925;52.588;13.370;2023-03-01T09:46:42;7.27;;;3.97;;
9771;SDS011;4925;52.588;13.370;2023-03-01T09:49:19;7.07;;;3.60;;
9771;SDS011;4925;52.588;13.370;2023-03-01T09:54:52;3.53;;;2.60;;
9771;SDS011;4925;52.588;13.370;2023-03-01T09:57:23;5.77;;;2.53;;
9771;SDS011;4925;52.588;13.370;2023-03-01T10:03:38;5.00;;;2.20;;
9771;SDS011;4925;52.588;13.370;2023-03-01T10:06:02;5.80;;;2.57;;
9771;SDS011;4925;52.588;13.370;2023-03-01T10:11:31;5.73;;;2.77;;
9771;SDS011;4925;52.588;13.370;2023-03-01T10:19:23;2.57;;;1.97;;
9771;SDS011;4925;52.588;13.370;2023-03-01T10:22:13;3.23;;;2.43;;
9771;SDS011;4925;52.588;13.370;2023-03-01T10:24:54;6.27;;;2.57;;
9771;SDS011;4925;52.588;13.370;2023-03-01T10:27:26;3.93;;;2.47;;
9771;SDS011;4925;52.588;13.370;2023-03-01T10:29:58;5.47;;;2.67;;
9771;SDS011;4925;52.588;13.370;2023-03-01T10:32:31;3.60;;;2.50;;
9771;SDS011;4925;52.588;13.370;2023-03-01T10:34:57;17.77;;;9.90;;
9771;SDS011;4925;52.588;13.370;2023-03-01T10:37:23;18.60;;;11.90;;
9771;SDS011;4925;52.588;13.370;2023-03-01T10:40:08;4.13;;;3.07;;
9771;SDS011;4925;52.588;13.370;2023-03-01T10:42:39;9.17;;;3.63;;
9771;SDS011;4925;52.588;13.370;2023-03-01T10:45:31;10.43;;;3.50;;
9771;SDS011;4925;52.588;13.370;2023-03-01T10:48:42;7.80;;;3.03;;
9771;SDS011;4925;52.588;13.370;2023-03-01T10:51:12;5.57;;;3.27;;
9771;SDS011;4925;52.588;13.370;2023-03-01T10:53:42;4.33;;;2.93;;
9771;SDS011;4925;52.588;13.370;2023-03-01T10:56:13;6.93;;;3.53;;
9771;SDS011;4925;52.588;13.370;2023-03-01T10:58:59;5.53;;;3.57;;
9771;SDS011;4925;52.588;13.370;2023-03-01T11:01:27;8.90;;;3.67;;
9771;SDS011;4925;52.588;13.370;2023-03-01T11:06:31;5.50;;;3.00;;
9771;SDS011;4925;52.588;13.370;2023-03-01T11:09:19;5.83;;;3.13;;
9771;SDS011;4925;52.588;13.370;2023-03-01T11:11:57;3.93;;;2.33;;
9771;SDS011;4925;52.588;13.370;2023-03-01T11:14:35;4.03;;;2.43;;
9771;SDS011;4925;52.588;13.370;2023-03-01T11:17:12;2.80;;;2.37;;
9771;SDS011;4925;52.588;13.370;2023-03-01T11:19:43;2.67;;;2.10;;
9771;SDS011;4925;52.588;13.370;2023-03-01T11:22:24;4.23;;;2.53;;
9771;SDS011;4925;52.588;13.370;2023-03-01T11:24:50;5.83;;;2.93;;
9771;SDS011;4925;52.588;13.370;2023-03-01T11:29:55;7.23;;;3.13;;
9771;SDS011;4925;52.588;13.370;2023-03-01T11:32:41;6.80;;;2.53;;
9771;SDS011;4925;52.588;13.370;2023-03-01T11:40:31;3.20;;;2.33;;
9771;SDS011;4925;52.588;13.370;2023-03-01T11:45:55;4.43;;;2.53;;
9771;SDS011;4925;52.588;13.370;2023-03-01T11:51:23;3.43;;;2.07;;
9771;SDS011;4925;52.588;13.370;2023-03-01T12:08:39;7.20;;;5.07;;
9771;SDS011;4925;52.588;13.370;2023-03-01T12:22:44;8.40;;;2.67;;
9771;SDS011;4925;52.588;13.370;2023-03-01T12:25:32;3.40;;;2.10;;
9771;SDS011;4925;52.588;13.370;2023-03-01T12:39:32;2.33;;;1.80;;
9771;SDS011;4925;52.588;13.370;2023-03-01T12:44:57;4.37;;;2.10;;
9771;SDS011;4925;52.588;13.370;2023-03-01T12:48:06;5.13;;;2.73;;
9771;SDS011;4925;52.588;13.370;2023-03-01T12:50:46;6.23;;;2.20;;
9771;SDS011;4925;52.588;13.370;2023-03-01T12:53:28;8.30;;;2.00;;
9771;SDS011;4925;52.588;13.370;2023-03-01T12:55:59;2.70;;;2.33;;
9771;SDS011;4925;52.588;13.370;2023-03-01T12:58:35;3.33;;;2.30;;
9771;SDS011;4925;52.588;13.370;2023-03-01T13:06:58;4.73;;;2.43;;
9771;SDS011;4925;52.588;13.370;2023-03-01T13:09:30;6.40;;;2.10;;
9771;SDS011;4925;52.588;13.370;2023-03-01T13:17:52;3.10;;;2.40;;
9771;SDS011;4925;52.588;13.370;2023-03-01T13:20:20;3.97;;;1.80;;
9771;SDS011;4925;52.588;13.370;2023-03-01T13:22:49;23.37;;;15.83;;
9771;SDS011;4925;52.588;13.370;2023-03-01T13:25:27;7.10;;;3.37;;
9771;SDS011;4925;52.588;13.370;2023-03-01T13:27:54;3.33;;;2.70;;
9771;SDS011;4925;52.588;13.370;2023-03-01T13:30:57;2.20;;;1.93;;
9771;SDS011;4925;52.588;13.370;2023-03-01T13:35:55;3.27;;;1.87;;
9771;SDS011;4925;52.588;13.370;2023-03-01T13:44:20;3.10;;;1.80;;
9771;SDS011;4925;52.588;13.370;2023-03-01T13:46:46;6.70;;;2.13;;
9771;SDS011;4925;52.588;13.370;2023-03-01T13:49:14;2.70;;;1.53;;
9771;SDS011;4925;52.588;13.370;2023-03-01T13:51:46;2.93;;;1.77;;
9771;SDS011;4925;52.588;13.370;2023-03-01T13:54:13;1.80;;;1.70;;
9771;SDS011;4925;52.588;13.370;2023-03-01T13:56:41;6.53;;;1.70;;
9771;SDS011;4925;52.588;13.370;2023-03-01T13:59:17;10.33;;;2.87;;
9771;SDS011;4925;52.588;13.370;2023-03-01T14:01:44;2.90;;;1.80;;
9771;SDS011;4925;52.588;13.370;2023-03-01T14:04:21;3.07;;;1.57;;
9771;SDS011;4925;52.588;13.370;2023-03-01T14:06:50;1.93;;;1.77;;
9771;SDS011;4925;52.588;13.370;2023-03-01T14:20:00;2.17;;;1.60;;
9771;SDS011;4925;52.588;13.370;2023-03-01T14:22:34;3.50;;;1.67;;
9771;SDS011;4925;52.588;13.370;2023-03-01T14:25:03;4.73;;;1.77;;
9771;SDS011;4925;52.588;13.370;2023-03-01T14:27:41;5.27;;;2.20;;
9771;SDS011;4925;52.588;13.370;2023-03-01T14:30:19;8.07;;;2.47;;
9771;SDS011;4925;52.588;13.370;2023-03-01T14:33:18;3.33;;;2.13;;
9771;SDS011;4925;52.588;13.370;2023-03-01T14:36:07;3.70;;;1.70;;
9771;SDS011;4925;52.588;13.370;2023-03-01T14:38:36;2.03;;;1.57;;
9771;SDS011;4925;52.588;13.370;2023-03-01T14:41:16;3.77;;;1.60;;
9771;SDS011;4925;52.588;13.370;2023-03-01T14:43:46;6.47;;;1.53;;
9771;SDS011;4925;52.588;13.370;2023-03-01T14:46:22;5.88;;;1.70;;
9771;SDS011;4925;52.588;13.370;2023-03-01T14:49:01;2.72;;;1.63;;
9771;SDS011;4925;52.588;13.370;2023-03-01T14:51:29;4.97;;;1.60;;
9771;SDS011;4925;52.588;13.370;2023-03-01T14:53:55;5.75;;;1.70;;
9771;SDS011;4925;52.588;13.370;2023-03-01T14:56:21;5.78;;;1.92;;
9771;SDS011;4925;52.588;13.370;2023-03-01T14:58:51;2.28;;;1.98;;
9771;SDS011;4925;52.588;13.370;2023-03-01T15:01:17;5.22;;;2.47;;
9771;SDS011;4925;52.588;13.370;2023-03-01T15:03:48;5.00;;;2.25;;
9771;SDS011;4925;52.588;13.370;2023-03-01T15:06:16;6.57;;;2.85;;
9771;SDS011;4925;52.588;13.370;2023-03-01T15:08:45;6.72;;;2.72;;
9771;SDS011;4925;52.588;13.370;2023-03-01T15:13:39;5.50;;;2.33;;
9771;SDS011;4925;52.588;13.370;2023-03-01T15:16:09;4.87;;;1.80;;
9771;SDS011;4925;52.588;13.370;2023-03-01T15:19:05;3.75;;;2.30;;
9771;SDS011;4925;52.588;13.370;2023-03-01T15:21:37;5.43;;;2.00;;
9771;SDS011;4925;52.588;13.370;2023-03-01T15:26:41;8.20;;;2.40;;
9771;SDS011;4925;52.588;13.370;2023-03-01T15:29:16;13.20;;;3.00;;
9771;SDS011;4925;52.588;13.370;2023-03-01T15:31:52;6.70;;;2.43;;
9771;SDS011;4925;52.588;13.370;2023-03-01T15:34:24;4.95;;;2.50;;
9771;SDS011;4925;52.588;13.370;2023-03-01T15:36:55;5.20;;;2.40;;
9771;SDS011;4925;52.588;13.370;2023-03-01T15:39:34;3.53;;;2.10;;
9771;SDS011;4925;52.588;13.370;2023-03-01T15:42:06;3.40;;;2.00;;
9771;SDS011;4925;52.588;13.370;2023-03-01T15:44:34;7.83;;;2.37;;
9771;SDS011;4925;52.588;13.370;2023-03-01T15:47:03;3.93;;;2.10;;
9771;SDS011;4925;52.588;13.370;2023-03-01T15:49:46;4.43;;;2.60;;
9771;SDS011;4925;52.588;13.370;2023-03-01T15:52:13;8.57;;;2.80;;
9771;SDS011;4925;52.588;13.370;2023-03-01T15:55:05;3.77;;;2.50;;
9771;SDS011;4925;52.588;13.370;2023-03-01T15:57:40;6.67;;;3.07;;
9771;SDS011;4925;52.588;13.370;2023-03-01T16:00:06;4.67;;;2.40;;
9771;SDS011;4925;52.588;13.370;2023-03-01T16:02:38;11.70;;;3.07;;
9771;SDS011;4925;52.588;13.370;2023-03-01T16:05:05;12.53;;;2.90;;
9771;SDS011;4925;52.588;13.370;2023-03-01T16:07:52;2.73;;;2.17;;
9771;SDS011;4925;52.588;13.370;2023-03-01T16:10:18;4.60;;;2.70;;
9771;SDS011;4925;52.588;13.370;2023-03-01T16:12:45;3.33;;;2.30;;
9771;SDS011;4925;52.588;13.370;2023-03-01T16:15:13;4.70;;;3.00;;
9771;SDS011;4925;52.588;13.370;2023-03-01T16:17:43;6.13;;;2.43;;
9771;SDS011;4925;52.588;13.370;2023-03-01T16:20:09;5.90;;;3.17;;
9771;SDS011;4925;52.588;13.370;2023-03-01T16:22:35;5.37;;;2.60;;
9771;SDS011;4925;52.588;13.370;2023-03-01T16:25:01;5.33;;;3.10;;
9771;SDS011;4925;52.588;13.370;2023-03-01T16:27:28;6.60;;;2.67;;
9771;SDS011;4925;52.588;13.370;2023-03-01T16:29:54;5.33;;;3.17;;
9771;SDS011;4925;52.588;13.370;2023-03-01T16:32:20;5.57;;;3.23;;
9771;SDS011;4925;52.588;13.370;2023-03-01T16:34:45;5.93;;;2.47;;
9771;SDS011;4925;52.588;13.370;2023-03-01T16:37:14;4.77;;;2.30;;
9771;SDS011;4925;52.588;13.370;2023-03-01T16:39:40;6.00;;;3.00;;
9771;SDS011;4925;52.588;13.370;2023-03-01T16:42:05;11.30;;;3.33;;
9771;SDS011;4925;52.588;13.370;2023-03-01T16:44:31;5.43;;;2.50;;
9771;SDS011;4925;52.588;13.370;2023-03-01T16:46:57;9.90;;;3.60;;
9771;SDS011;4925;52.588;13.370;2023-03-01T16:49:23;6.33;;;2.63;;
9771;SDS011;4925;52.588;13.370;2023-03-01T16:51:48;5.10;;;3.10;;
9771;SDS011;4925;52.588;13.370;2023-03-01T16:54:14;8.73;;;3.83;;
9771;SDS011;4925;52.588;13.370;2023-03-01T16:56:39;7.10;;;4.00;;
9771;SDS011;4925;52.588;13.370;2023-03-01T16:59:05;8.37;;;3.60;;
9771;SDS011;4925;52.588;13.370;2023-03-01T17:01:32;7.27;;;3.70;;
9771;SDS011;4925;52.588;13.370;2023-03-01T17:04:02;9.50;;;3.93;;
9771;SDS011;4925;52.588;13.370;2023-03-01T17:06:28;10.90;;;4.43;;
9771;SDS011;4925;52.588;13.370;2023-03-01T17:08:54;10.87;;;4.40;;
9771;SDS011;4925;52.588;13.370;2023-03-01T17:11:21;20.03;;;4.43;;